Denver, Colorado
Traffic Map
Current Weather Conditions
Denver, Colorado
Broken Clouds Thunderstorm
Broken Clouds
65°
Feels Like: 65°
Wind Chill: 65° Ceiling: 11000
Heat Index: 65° Visibility: 10mi
Dew Point: 41° Wind: 8mph
Humidity: 42% Direction: 340° (NNW)
Pressure: 30.03in Gusts: 0mph
Raw Report DataKBKF 281958Z 34007KT 10SM VCTS SCT050 BKN110 BKN220 18/05 A3003 RMK AO2A SLP115 T01820050
Traffic Incident Summary
Active as of:
Severity:
Category:
InformationThere was an issue retrieving the traffic information for this location. Please try a different location or try again shortly.
Advertisements
Track Severe Weather on mobile